Time;durP1;ratioP1;P1;durP2;ratioP2;P2;SDS_P1;SDS_P2;PMS_P1;PMS_P2;Temp;Humidity;BMP_temperature;BMP_pressure;BME280_temperature;BME280_humidity;BME280_pressure;Samples;Min_cycle;Max_cycle;Signal;HPM_P1;HPM_P2
2021/08/07 00:00:51;;;;;;;4.50;1.73;;;;;;;;;;5028027;28;20163;-80
2021/08/07 00:03:16;;;;;;;4.40;1.48;;;;;;;;;;5010231;28;20038;-80
2021/08/07 00:05:43;;;;;;;5.88;2.03;;;;;;;;;;5028733;28;20056;-80
2021/08/07 00:08:08;;;;;;;4.28;1.60;;;;;;;;;;5029914;28;20425;-80
2021/08/07 00:10:34;;;;;;;6.68;1.98;;;;;;;;;;5024087;28;20034;-80
2021/08/07 00:13:00;;;;;;;4.65;1.88;;;;;;;;;;5018355;28;20036;-79
2021/08/07 00:15:26;;;;;;;6.07;2.10;;;;;;;;;;5023790;28;20025;-80
2021/08/07 00:17:52;;;;;;;5.85;2.17;;;;;;;;;;5025913;28;20029;-80
2021/08/07 00:20:17;;;;;;;6.90;2.25;;;;;;;;;;5014956;28;20044;-79
2021/08/07 00:22:43;;;;;;;7.55;2.08;;;;;;;;;;5030234;28;20024;-80
2021/08/07 00:25:09;;;;;;;5.25;2.20;;;;;;;;;;5028005;28;20107;-80
2021/08/07 00:27:35;;;;;;;3.55;1.90;;;;;;;;;;5027616;28;20025;-80
2021/08/07 00:30:00;;;;;;;7.50;2.17;;;;;;;;;;5029406;28;20067;-80
2021/08/07 00:32:25;;;;;;;6.68;2.30;;;;;;;;;;5015231;28;20300;-80
2021/08/07 00:34:51;;;;;;;6.22;2.30;;;;;;;;;;5029542;28;20440;-80
2021/08/07 00:37:16;;;;;;;6.53;2.45;;;;;;;;;;5030052;28;20045;-80
2021/08/07 00:39:42;;;;;;;6.43;2.50;;;;;;;;;;5028345;28;20374;-80
2021/08/07 00:42:07;;;;;;;6.45;2.05;;;;;;;;;;5029011;28;20052;-80
2021/08/07 00:44:33;;;;;;;5.35;2.30;;;;;;;;;;5011374;28;20037;-80
2021/08/07 00:46:58;;;;;;;6.80;2.15;;;;;;;;;;5016547;28;20029;-79
2021/08/07 00:49:24;;;;;;;5.93;2.38;;;;;;;;;;5026788;28;20491;-80
2021/08/07 00:51:50;;;;;;;6.13;2.50;;;;;;;;;;5028834;28;20487;-80
2021/08/07 00:54:15;;;;;;;5.28;2.40;;;;;;;;;;5029198;28;20037;-80
2021/08/07 00:56:41;;;;;;;4.95;2.50;;;;;;;;;;5022226;28;20041;-80
2021/08/07 00:59:06;;;;;;;7.97;2.50;;;;;;;;;;5026831;28;20041;-80
2021/08/07 01:02:08;;;;;;;6.50;2.55;;;;;;;;;;5009716;28;20616;-80
2021/08/07 01:04:42;;;;;;;5.80;2.63;;;;;;;;;;5026768;28;20025;-80
2021/08/07 01:07:16;;;;;;;7.57;2.85;;;;;;;;;;5022734;28;20029;-80
2021/08/07 01:10:17;;;;;;;5.80;2.67;;;;;;;;;;5026895;28;20057;-80
2021/08/07 01:12:50;;;;;;;8.95;2.70;;;;;;;;;;5019914;28;20473;-79
2021/08/07 01:15:21;;;;;;;7.50;2.90;;;;;;;;;;5030812;28;20030;-80
2021/08/07 01:17:47;;;;;;;5.95;2.60;;;;;;;;;;5035114;28;20025;-80
2021/08/07 01:20:22;;;;;;;6.57;2.67;;;;;;;;;;5028388;28;20022;-80
2021/08/07 01:22:56;;;;;;;5.65;2.60;;;;;;;;;;5027026;28;20052;-80
2021/08/07 01:25:29;;;;;;;6.93;2.70;;;;;;;;;;5029007;28;20027;-80
2021/08/07 01:27:54;;;;;;;6.40;2.50;;;;;;;;;;5025487;28;20028;-80
2021/08/07 01:30:22;;;;;;;6.90;2.88;;;;;;;;;;5031569;28;20490;-80
2021/08/07 01:32:48;;;;;;;5.88;2.97;;;;;;;;;;5029108;28;20048;-80
2021/08/07 01:35:13;;;;;;;7.22;2.80;;;;;;;;;;5032184;28;20021;-79
2021/08/07 01:37:40;;;;;;;7.00;2.70;;;;;;;;;;5030090;28;20037;-80
2021/08/07 01:40:06;;;;;;;6.25;2.65;;;;;;;;;;5031917;28;20053;-80
2021/08/07 01:42:31;;;;;;;5.97;2.60;;;;;;;;;;5028074;28;20068;-80
2021/08/07 01:44:57;;;;;;;6.72;3.35;;;;;;;;;;5032013;28;20036;-80
2021/08/07 01:47:40;;;;;;;5.28;2.45;;;;;;;;;;5028481;28;20374;-79
2021/08/07 01:50:12;;;;;;;6.93;3.05;;;;;;;;;;5027288;28;20021;-80
2021/08/07 01:52:44;;;;;;;7.60;3.03;;;;;;;;;;5030111;28;20108;-79
2021/08/07 01:55:22;;;;;;;6.40;2.80;;;;;;;;;;5031369;28;20032;-80
2021/08/07 01:57:55;;;;;;;6.47;3.00;;;;;;;;;;5028984;28;20091;-80
2021/08/07 02:00:22;;;;;;;7.30;2.92;;;;;;;;;;5031404;28;20025;-80
2021/08/07 02:02:48;;;;;;;8.50;2.90;;;;;;;;;;5023914;28;20443;-80
2021/08/07 02:05:17;;;;;;;7.82;3.05;;;;;;;;;;5016316;28;20032;-80
2021/08/07 02:07:42;;;;;;;7.18;2.97;;;;;;;;;;5032266;28;20026;-80
2021/08/07 02:10:08;;;;;;;7.13;2.72;;;;;;;;;;5033104;28;20380;-79
2021/08/07 02:12:34;;;;;;;8.00;2.92;;;;;;;;;;5023805;28;20071;-80
2021/08/07 02:15:00;;;;;;;7.55;3.30;;;;;;;;;;5026058;28;20065;-80
2021/08/07 02:17:26;;;;;;;6.80;2.78;;;;;;;;;;5029551;28;20478;-80
2021/08/07 02:19:51;;;;;;;7.57;3.00;;;;;;;;;;5030364;28;20116;-80
2021/08/07 02:22:19;;;;;;;5.35;2.70;;;;;;;;;;5028667;28;20499;-80
2021/08/07 02:24:44;;;;;;;6.75;2.88;;;;;;;;;;5030984;28;20437;-80
2021/08/07 02:27:10;;;;;;;7.07;3.28;;;;;;;;;;5029087;28;20033;-80
2021/08/07 02:29:36;;;;;;;8.95;3.20;;;;;;;;;;5026381;28;20033;-80
2021/08/07 02:32:02;;;;;;;6.90;2.85;;;;;;;;;;5019113;28;20040;-80
2021/08/07 02:34:28;;;;;;;8.45;3.25;;;;;;;;;;5022053;28;20034;-80
2021/08/07 02:36:55;;;;;;;7.63;3.10;;;;;;;;;;5011307;28;20121;-80
2021/08/07 02:39:22;;;;;;;5.25;2.63;;;;;;;;;;5027868;28;20079;-80
2021/08/07 02:41:48;;;;;;;6.72;3.00;;;;;;;;;;5019946;28;20038;-80
2021/08/07 02:44:15;;;;;;;5.82;2.55;;;;;;;;;;5030566;28;20029;-80
2021/08/07 02:46:41;;;;;;;5.30;2.83;;;;;;;;;;5048907;28;20107;-80
2021/08/07 02:49:07;;;;;;;6.68;2.72;;;;;;;;;;5025009;28;20026;-80
2021/08/07 02:51:32;;;;;;;8.10;2.90;;;;;;;;;;5030650;28;20037;-80
2021/08/07 02:53:58;;;;;;;7.70;3.10;;;;;;;;;;5016219;28;20029;-80
2021/08/07 02:56:24;;;;;;;9.82;3.10;;;;;;;;;;5030363;28;20534;-80
2021/08/07 02:58:49;;;;;;;4.78;2.72;;;;;;;;;;5030490;28;20043;-80
2021/08/07 03:01:15;;;;;;;7.50;3.03;;;;;;;;;;5027220;28;20540;-80
2021/08/07 03:03:40;;;;;;;6.68;2.67;;;;;;;;;;5028543;28;20496;-80
2021/08/07 03:06:06;;;;;;;6.35;2.50;;;;;;;;;;5026479;28;20151;-80
2021/08/07 03:08:31;;;;;;;6.85;2.50;;;;;;;;;;5016158;28;20665;-80
2021/08/07 03:10:57;;;;;;;6.70;2.58;;;;;;;;;;5024907;28;20048;-80
2021/08/07 03:13:22;;;;;;;8.15;2.70;;;;;;;;;;5024550;28;20033;-80
2021/08/07 03:15:47;;;;;;;6.28;2.60;;;;;;;;;;5016754;28;20036;-80
2021/08/07 03:18:13;;;;;;;6.85;2.78;;;;;;;;;;5027990;28;20030;-80
2021/08/07 03:20:39;;;;;;;6.85;2.70;;;;;;;;;;5013085;28;20083;-80
2021/08/07 03:23:07;;;;;;;6.85;2.80;;;;;;;;;;5033889;28;20021;-80
2021/08/07 03:25:32;;;;;;;6.00;2.63;;;;;;;;;;5029525;28;20057;-80
2021/08/07 03:27:58;;;;;;;6.88;3.13;;;;;;;;;;5031626;28;20392;-80
2021/08/07 03:30:25;;;;;;;7.82;2.83;;;;;;;;;;5028649;28;20485;-80
2021/08/07 03:32:51;;;;;;;6.78;2.90;;;;;;;;;;5026807;28;20030;-80
2021/08/07 03:35:16;;;;;;;6.88;2.80;;;;;;;;;;5010853;28;20082;-80
2021/08/07 03:37:42;;;;;;;5.55;2.72;;;;;;;;;;5028862;28;20503;-80
2021/08/07 03:40:09;;;;;;;4.43;2.80;;;;;;;;;;5027532;28;20473;-80
2021/08/07 03:42:34;;;;;;;5.43;2.88;;;;;;;;;;5024695;28;20160;-80
2021/08/07 03:45:00;;;;;;;8.30;3.40;;;;;;;;;;5031002;28;20053;-80
2021/08/07 03:47:25;;;;;;;6.03;2.42;;;;;;;;;;5024989;28;20359;-79
2021/08/07 03:49:51;;;;;;;5.68;2.85;;;;;;;;;;5028437;28;20025;-80
2021/08/07 03:52:16;;;;;;;6.07;2.72;;;;;;;;;;5026410;28;20504;-80
2021/08/07 03:54:41;;;;;;;7.05;2.80;;;;;;;;;;5021364;28;20061;-80
2021/08/07 03:57:07;;;;;;;5.90;2.45;;;;;;;;;;5022470;28;20994;-80
2021/08/07 03:59:32;;;;;;;11.90;3.17;;;;;;;;;;5028853;28;20112;-80
2021/08/07 04:01:58;;;;;;;5.63;2.40;;;;;;;;;;5007713;28;20085;-80
2021/08/07 04:04:23;;;;;;;4.32;2.45;;;;;;;;;;5010935;28;20033;-79
2021/08/07 04:06:49;;;;;;;6.35;2.80;;;;;;;;;;5029298;28;20040;-80
2021/08/07 04:09:14;;;;;;;6.13;2.80;;;;;;;;;;4997198;28;20044;-80
2021/08/07 04:11:40;;;;;;;6.68;2.30;;;;;;;;;;5012113;28;20116;-80
2021/08/07 04:14:05;;;;;;;7.93;2.30;;;;;;;;;;5031267;28;20044;-80
2021/08/07 04:16:32;;;;;;;7.60;2.50;;;;;;;;;;5011730;28;20115;-80
2021/08/07 04:18:57;;;;;;;6.10;2.05;;;;;;;;;;5030190;28;20145;-79
2021/08/07 04:21:23;;;;;;;6.55;2.60;;;;;;;;;;5014602;28;20084;-80
2021/08/07 04:23:48;;;;;;;6.32;2.20;;;;;;;;;;5023981;28;20113;-80
2021/08/07 04:26:14;;;;;;;8.57;2.30;;;;;;;;;;4997554;28;20136;-80
2021/08/07 04:28:39;;;;;;;5.85;2.40;;;;;;;;;;5025466;28;20048;-80
2021/08/07 04:31:06;;;;;;;5.03;2.03;;;;;;;;;;5012709;28;20362;-80
2021/08/07 04:33:33;;;;;;;6.38;2.22;;;;;;;;;;5030335;28;20037;-80
2021/08/07 04:35:59;;;;;;;6.97;2.53;;;;;;;;;;5007114;28;20112;-80
2021/08/07 04:38:24;;;;;;;6.55;2.42;;;;;;;;;;5024387;28;20029;-80
2021/08/07 04:40:50;;;;;;;5.28;2.33;;;;;;;;;;5022451;28;20036;-80
2021/08/07 04:43:15;;;;;;;5.53;2.35;;;;;;;;;;5030516;28;20071;-80
2021/08/07 04:45:41;;;;;;;7.50;2.28;;;;;;;;;;5015254;28;20048;-80
2021/08/07 04:48:07;;;;;;;4.82;2.00;;;;;;;;;;5016023;28;20156;-80
2021/08/07 04:50:34;;;;;;;5.75;1.95;;;;;;;;;;5026813;28;20077;-80
2021/08/07 04:53:00;;;;;;;8.45;2.67;;;;;;;;;;5022362;28;20044;-80
2021/08/07 04:55:25;;;;;;;4.55;2.20;;;;;;;;;;5032008;28;20029;-80
2021/08/07 04:57:51;;;;;;;7.30;2.10;;;;;;;;;;5026838;28;20033;-80
2021/08/07 05:00:18;;;;;;;6.53;2.08;;;;;;;;;;5026488;28;20505;-80
2021/08/07 05:02:46;;;;;;;4.85;2.08;;;;;;;;;;5026982;28;20034;-80
2021/08/07 05:05:13;;;;;;;5.90;2.33;;;;;;;;;;5009114;28;20033;-80
2021/08/07 05:07:38;;;;;;;4.38;1.98;;;;;;;;;;5028990;28;20025;-80
2021/08/07 05:10:05;;;;;;;4.65;2.08;;;;;;;;;;5029046;28;20493;-80
2021/08/07 05:12:31;;;;;;;6.22;2.13;;;;;;;;;;5024359;28;20044;-80
2021/08/07 05:14:57;;;;;;;7.53;2.65;;;;;;;;;;5028535;28;20199;-80
2021/08/07 05:17:27;;;;;;;5.40;2.10;;;;;;;;;;5026132;28;20049;-80
2021/08/07 05:19:52;;;;;;;5.60;2.10;;;;;;;;;;5027926;28;20108;-80
2021/08/07 05:22:19;;;;;;;6.65;2.10;;;;;;;;;;5032784;28;20418;-80
2021/08/07 05:24:44;;;;;;;6.90;2.10;;;;;;;;;;5026185;28;20113;-80
2021/08/07 05:27:10;;;;;;;7.38;2.53;;;;;;;;;;5012597;28;20065;-80
2021/08/07 05:29:36;;;;;;;5.85;1.90;;;;;;;;;;5042683;28;20037;-79
2021/08/07 05:32:02;;;;;;;3.90;2.00;;;;;;;;;;5026755;28;20060;-80
2021/08/07 05:34:28;;;;;;;5.93;2.10;;;;;;;;;;5029740;28;20068;-80
2021/08/07 05:36:53;;;;;;;5.68;2.00;;;;;;;;;;5013459;28;20076;-80
2021/08/07 05:39:18;;;;;;;7.82;2.00;;;;;;;;;;5022788;28;20030;-80
2021/08/07 05:41:44;;;;;;;6.65;2.00;;;;;;;;;;5019567;28;20037;-80
2021/08/07 05:44:09;;;;;;;6.97;2.17;;;;;;;;;;5024704;28;20045;-80
2021/08/07 05:46:35;;;;;;;6.22;2.13;;;;;;;;;;5024722;28;20497;-80
2021/08/07 05:49:00;;;;;;;5.30;2.15;;;;;;;;;;5028148;28;20034;-80
2021/08/07 05:51:25;;;;;;;6.93;2.13;;;;;;;;;;5010049;28;20037;-80
2021/08/07 05:53:52;;;;;;;7.18;2.20;;;;;;;;;;5023705;28;20375;-80
2021/08/07 05:56:18;;;;;;;5.47;2.10;;;;;;;;;;5028828;28;20061;-80
2021/08/07 05:58:44;;;;;;;6.07;2.00;;;;;;;;;;5011598;28;20079;-80
2021/08/07 06:01:09;;;;;;;5.00;2.13;;;;;;;;;;5026950;28;20042;-80
2021/08/07 06:03:34;;;;;;;7.15;2.42;;;;;;;;;;5016022;28;20030;-80
2021/08/07 06:06:00;;;;;;;5.50;2.15;;;;;;;;;;5027462;28;20029;-80
2021/08/07 06:08:28;;;;;;;5.15;2.08;;;;;;;;;;5016737;28;20044;-80
2021/08/07 06:11:02;;;;;;;7.35;2.20;;;;;;;;;;5029674;28;20402;-80
2021/08/07 06:13:28;;;;;;;4.88;2.03;;;;;;;;;;5031504;28;20432;-80
2021/08/07 06:15:53;;;;;;;9.63;2.17;;;;;;;;;;5034678;28;20091;-80
2021/08/07 06:18:19;;;;;;;6.38;2.50;;;;;;;;;;5014574;28;20034;-79
2021/08/07 06:20:45;;;;;;;6.03;2.10;;;;;;;;;;5030107;28;20077;-79
2021/08/07 06:23:11;;;;;;;6.53;2.33;;;;;;;;;;5024934;28;20075;-79
2021/08/07 06:25:37;;;;;;;4.25;2.40;;;;;;;;;;5030078;28;20481;-80
2021/08/07 06:28:03;;;;;;;4.85;2.10;;;;;;;;;;5027908;28;20045;-80
2021/08/07 06:30:29;;;;;;;6.80;2.40;;;;;;;;;;5033866;28;20057;-80
2021/08/07 06:32:55;;;;;;;6.53;2.00;;;;;;;;;;5028211;28;20134;-80
2021/08/07 06:35:21;;;;;;;6.70;2.55;;;;;;;;;;5034922;28;20615;-80
2021/08/07 06:37:47;;;;;;;5.93;2.50;;;;;;;;;;5026323;28;20049;-80
2021/08/07 06:40:13;;;;;;;5.43;2.08;;;;;;;;;;5023647;28;20040;-80
2021/08/07 06:42:39;;;;;;;5.18;2.05;;;;;;;;;;5031879;28;20033;-80
2021/08/07 06:45:05;;;;;;;5.88;2.53;;;;;;;;;;5033383;28;20033;-80
2021/08/07 06:47:31;;;;;;;5.35;2.40;;;;;;;;;;5032530;28;20120;-80
2021/08/07 06:49:56;;;;;;;5.93;2.70;;;;;;;;;;5022158;28;20528;-80
2021/08/07 06:52:22;;;;;;;5.55;2.42;;;;;;;;;;5027421;28;20117;-79
2021/08/07 06:54:48;;;;;;;6.07;2.05;;;;;;;;;;5032685;28;20037;-80
2021/08/07 06:57:17;;;;;;;5.47;2.50;;;;;;;;;;5031296;28;20046;-80
2021/08/07 06:59:43;;;;;;;6.65;2.47;;;;;;;;;;5031238;28;20030;-80
2021/08/07 07:02:08;;;;;;;6.15;2.08;;;;;;;;;;5026228;28;20050;-80
2021/08/07 07:04:35;;;;;;;8.52;2.70;;;;;;;;;;5025615;28;20064;-79
2021/08/07 07:07:01;;;;;;;5.53;1.95;;;;;;;;;;5029074;28;20029;-79
2021/08/07 07:09:26;;;;;;;4.28;2.08;;;;;;;;;;5015804;28;20078;-80
2021/08/07 07:11:52;;;;;;;6.55;2.45;;;;;;;;;;5032750;28;20037;-80
2021/08/07 07:14:17;;;;;;;5.90;2.03;;;;;;;;;;5024703;28;20144;-80
2021/08/07 07:16:43;;;;;;;6.70;1.90;;;;;;;;;;5015030;28;20037;-79
2021/08/07 07:19:08;;;;;;;3.63;1.80;;;;;;;;;;5025541;28;20030;-79
2021/08/07 07:21:33;;;;;;;4.55;2.08;;;;;;;;;;5030259;28;20029;-79
2021/08/07 07:23:59;;;;;;;5.60;2.10;;;;;;;;;;5030279;28;20556;-79
2021/08/07 07:26:27;;;;;;;5.03;1.52;;;;;;;;;;5031249;28;20482;-79
2021/08/07 07:28:54;;;;;;;5.78;1.60;;;;;;;;;;5027897;28;20036;-79
2021/08/07 07:31:20;;;;;;;5.43;2.03;;;;;;;;;;5035096;28;20064;-80
2021/08/07 07:33:46;;;;;;;4.90;1.80;;;;;;;;;;5035946;28;20033;-79
2021/08/07 07:36:11;;;;;;;3.53;1.50;;;;;;;;;;5018260;28;20030;-79
2021/08/07 07:38:37;;;;;;;3.83;1.40;;;;;;;;;;5032522;28;20041;-80
2021/08/07 07:41:02;;;;;;;4.00;1.48;;;;;;;;;;5038906;28;20083;-79
2021/08/07 07:43:28;;;;;;;3.20;1.40;;;;;;;;;;5030240;28;20061;-79
2021/08/07 07:45:53;;;;;;;6.28;1.67;;;;;;;;;;5032400;28;20377;-80
2021/08/07 07:48:18;;;;;;;4.88;1.45;;;;;;;;;;5017096;28;20026;-80
2021/08/07 07:50:44;;;;;;;8.48;1.30;;;;;;;;;;5027628;28;20122;-80
2021/08/07 07:53:09;;;;;;;4.65;1.80;;;;;;;;;;5028712;28;20062;-79
2021/08/07 07:55:35;;;;;;;5.15;1.50;;;;;;;;;;5023937;28;20045;-79
2021/08/07 07:58:00;;;;;;;4.28;1.60;;;;;;;;;;5011237;28;20405;-80
2021/08/07 08:00:26;;;;;;;4.05;1.60;;;;;;;;;;5034946;28;20117;-79
2021/08/07 08:02:52;;;;;;;5.68;2.00;;;;;;;;;;5029619;28;20140;-79
2021/08/07 08:05:18;;;;;;;4.43;2.50;;;;;;;;;;5035500;28;20037;-79
2021/08/07 08:07:43;;;;;;;6.15;2.15;;;;;;;;;;5027150;28;20036;-79
2021/08/07 08:10:11;;;;;;;5.05;2.20;;;;;;;;;;5025149;28;20022;-79
2021/08/07 08:12:38;;;;;;;5.82;2.30;;;;;;;;;;5028485;28;20558;-79
2021/08/07 08:15:05;;;;;;;6.85;2.80;;;;;;;;;;5030639;28;20029;-79
2021/08/07 08:17:31;;;;;;;6.40;2.90;;;;;;;;;;5035133;28;20040;-79
2021/08/07 08:19:56;;;;;;;5.65;2.55;;;;;;;;;;5027230;28;20021;-79
2021/08/07 08:22:21;;;;;;;5.93;3.03;;;;;;;;;;5028969;28;20110;-79
2021/08/07 08:24:47;;;;;;;6.10;2.50;;;;;;;;;;5025733;28;20465;-79
2021/08/07 08:27:18;;;;;;;7.13;2.70;;;;;;;;;;5011183;28;20029;-79
2021/08/07 08:29:44;;;;;;;5.70;2.50;;;;;;;;;;5027641;28;20053;-79
2021/08/07 08:32:09;;;;;;;7.55;2.20;;;;;;;;;;5022005;28;20057;-79
2021/08/07 08:34:34;;;;;;;4.95;2.17;;;;;;;;;;5007065;28;20615;-80
2021/08/07 08:37:00;;;;;;;4.43;1.83;;;;;;;;;;5026378;28;20099;-79
2021/08/07 08:39:25;;;;;;;4.13;1.80;;;;;;;;;;5022717;28;20044;-79
2021/08/07 08:41:51;;;;;;;3.25;1.50;;;;;;;;;;5023363;28;20028;-80
2021/08/07 08:44:16;;;;;;;4.35;1.70;;;;;;;;;;5014362;28;20030;-80
2021/08/07 08:46:43;;;;;;;4.88;1.30;;;;;;;;;;5026089;28;20030;-80
2021/08/07 08:49:12;;;;;;;5.63;1.80;;;;;;;;;;5017096;28;20057;-79
2021/08/07 08:51:38;;;;;;;3.30;1.92;;;;;;;;;;5027191;28;20881;-80
2021/08/07 08:54:04;;;;;;;5.68;2.10;;;;;;;;;;5021624;28;20037;-79
2021/08/07 08:56:34;;;;;;;4.57;2.10;;;;;;;;;;5023069;28;20695;-80
2021/08/07 08:59:01;;;;;;;5.25;2.00;;;;;;;;;;5020773;28;20034;-80
2021/08/07 09:01:27;;;;;;;5.60;1.90;;;;;;;;;;5022715;28;20053;-79
2021/08/07 09:03:52;;;;;;;4.10;2.10;;;;;;;;;;5010045;28;20033;-79
2021/08/07 09:06:17;;;;;;;7.47;2.28;;;;;;;;;;5028437;28;20048;-79
2021/08/07 09:09:05;;;;;;;7.25;2.53;;;;;;;;;;5024448;28;20029;-79
2021/08/07 09:11:32;;;;;;;5.57;2.30;;;;;;;;;;5025113;28;20029;-79
2021/08/07 09:14:17;;;;;;;5.40;2.22;;;;;;;;;;5024545;28;20032;-80
2021/08/07 09:17:01;;;;;;;4.07;2.15;;;;;;;;;;5018452;28;20036;-79
2021/08/07 09:19:39;;;;;;;4.03;2.08;;;;;;;;;;5021442;28;20117;-80
2021/08/07 09:22:24;;;;;;;6.10;2.20;;;;;;;;;;5022997;28;20034;-80
2021/08/07 09:25:01;;;;;;;3.95;1.90;;;;;;;;;;5023963;28;20017;-79
2021/08/07 09:27:34;;;;;;;5.25;1.95;;;;;;;;;;5017876;28;20029;-79
2021/08/07 09:30:00;;;;;;;;;;;;;;;;;;5020359;28;20083;-79
2021/08/07 09:32:26;;;;;;;3.60;1.70;;;;;;;;;;5019923;28;19925;-79
2021/08/07 09:35:07;;;;;;;3.15;1.50;;;;;;;;;;5021258;28;20040;-80
2021/08/07 09:37:32;;;;;;;5.60;1.60;;;;;;;;;;5023440;28;20099;-80
2021/08/07 09:40:02;;;;;;;5.28;1.85;;;;;;;;;;5023700;28;20496;-80
2021/08/07 09:42:31;;;;;;;4.13;1.75;;;;;;;;;;5024828;28;20083;-80
2021/08/07 09:45:10;;;;;;;5.13;1.70;;;;;;;;;;5022353;28;20033;-80
2021/08/07 09:47:41;;;;;;;5.35;1.65;;;;;;;;;;5040533;28;20580;-79
2021/08/07 09:50:24;;;;;;;4.05;1.63;;;;;;;;;;5021793;28;20034;-80
2021/08/07 09:52:50;;;;;;;5.20;1.90;;;;;;;;;;5028325;28;20030;-80
2021/08/07 09:55:15;;;;;;;4.82;1.85;;;;;;;;;;5008187;28;20045;-80
2021/08/07 09:58:03;;;;;;;7.80;1.80;;;;;;;;;;5029973;28;20586;-80
2021/08/07 10:00:39;;;;;;;5.88;1.60;;;;;;;;;;5032037;28;20033;-80
2021/08/07 10:03:27;;;;;;;6.00;1.35;;;;;;;;;;5030651;28;20498;-80
2021/08/07 10:05:53;;;;;;;6.22;1.48;;;;;;;;;;5025714;28;20025;-80
2021/08/07 10:08:18;;;;;;;7.40;1.83;;;;;;;;;;5037019;28;20082;-80
2021/08/07 10:10:45;;;;;;;5.45;1.70;;;;;;;;;;4988340;28;20026;-80
2021/08/07 10:13:12;;;;;;;6.60;1.70;;;;;;;;;;5031471;28;20075;-80
2021/08/07 10:15:40;;;;;;;7.32;1.70;;;;;;;;;;5031682;28;20029;-80
2021/08/07 10:18:06;;;;;;;7.45;2.03;;;;;;;;;;5024390;28;20401;-81
2021/08/07 10:20:34;;;;;;;7.78;1.80;;;;;;;;;;5021337;28;20125;-80
2021/08/07 10:23:00;;;;;;;5.78;1.98;;;;;;;;;;5008977;28;20389;-81
2021/08/07 10:25:26;;;;;;;5.75;1.90;;;;;;;;;;5027239;28;20116;-80
2021/08/07 10:27:57;;;;;;;7.30;1.90;;;;;;;;;;5025298;28;20167;-80
2021/08/07 10:30:23;;;;;;;4.63;1.45;;;;;;;;;;5027073;28;20040;-81
2021/08/07 10:32:49;;;;;;;5.07;1.85;;;;;;;;;;5026811;28;20033;-80
2021/08/07 10:35:16;;;;;;;6.10;1.70;;;;;;;;;;5029899;28;20041;-80
2021/08/07 10:37:42;;;;;;;5.75;1.40;;;;;;;;;;5029680;28;20042;-80
2021/08/07 10:40:10;;;;;;;4.68;1.52;;;;;;;;;;5023294;28;20132;-80
2021/08/07 10:42:37;;;;;;;4.32;1.35;;;;;;;;;;5025216;28;20600;-80
2021/08/07 10:45:07;;;;;;;4.47;1.30;;;;;;;;;;5025763;28;20037;-80
2021/08/07 10:47:34;;;;;;;4.47;1.50;;;;;;;;;;5034517;28;21078;-80
2021/08/07 10:50:00;;;;;;;3.95;0.98;;;;;;;;;;5000994;28;20072;-80
2021/08/07 10:52:28;;;;;;;6.07;1.20;;;;;;;;;;5027565;28;20033;-80
2021/08/07 10:54:55;;;;;;;4.75;1.27;;;;;;;;;;5023105;28;20042;-80
2021/08/07 10:57:39;;;;;;;6.13;1.48;;;;;;;;;;5035496;28;20033;-80
2021/08/07 11:00:17;;;;;;;5.47;1.30;;;;;;;;;;5034520;28;20652;-80
2021/08/07 11:02:46;;;;;;;5.60;1.30;;;;;;;;;;5029735;28;20050;-80
2021/08/07 11:05:12;;;;;;;5.05;1.10;;;;;;;;;;5030898;28;20744;-80
2021/08/07 11:07:37;;;;;;;3.10;1.05;;;;;;;;;;5025053;28;20124;-80
2021/08/07 11:10:08;;;;;;;5.35;1.10;;;;;;;;;;5029392;28;20041;-80
2021/08/07 11:12:34;;;;;;;3.85;1.30;;;;;;;;;;5032187;28;20040;-80
2021/08/07 11:15:05;;;;;;;3.95;1.23;;;;;;;;;;5026524;28;20032;-80
2021/08/07 11:17:34;;;;;;;5.53;1.30;;;;;;;;;;5023267;28;20064;-80
2021/08/07 11:20:14;;;;;;;4.68;1.10;;;;;;;;;;5024638;28;20037;-79
2021/08/07 11:22:43;;;;;;;4.70;1.30;;;;;;;;;;5028875;28;20029;-80
2021/08/07 11:25:20;;;;;;;4.55;1.10;;;;;;;;;;5034630;28;20033;-80
2021/08/07 11:30:27;;;;;;;3.38;1.10;;;;;;;;;;5029781;28;20072;-80
2021/08/07 11:33:13;;;;;;;4.15;1.02;;;;;;;;;;5027711;28;20040;-80
2021/08/07 11:35:39;;;;;;;7.68;1.25;;;;;;;;;;5028668;28;20060;-80
2021/08/07 11:40:53;;;;;;;4.40;1.33;;;;;;;;;;5031799;28;20037;-79
2021/08/07 11:43:29;;;;;;;4.95;1.00;;;;;;;;;;5021063;28;20026;-80
2021/08/07 11:45:54;;;;;;;4.03;1.15;;;;;;;;;;5025825;28;20420;-80
2021/08/07 11:48:27;;;;;;;4.70;1.10;;;;;;;;;;5027880;28;20044;-79
2021/08/07 11:50:53;;;;;;;;;;;;;;;;;;5022811;28;20111;-80
2021/08/07 11:53:20;;;;;;;4.93;1.00;;;;;;;;;;5025473;28;20410;-80
2021/08/07 11:56:05;;;;;;;5.63;0.93;;;;;;;;;;5043050;28;20029;-79
2021/08/07 11:58:33;;;;;;;4.88;1.17;;;;;;;;;;5022117;28;20184;-80
2021/08/07 12:01:01;;;;;;;4.22;1.00;;;;;;;;;;5032729;28;20027;-80
2021/08/07 12:03:28;;;;;;;3.40;1.10;;;;;;;;;;5019590;28;20059;-80
2021/08/07 12:05:55;;;;;;;3.53;0.90;;;;;;;;;;4995911;28;20038;-80
2021/08/07 12:08:22;;;;;;;6.28;1.50;;;;;;;;;;5023038;28;20598;-80
2021/08/07 12:11:05;;;;;;;3.58;1.20;;;;;;;;;;5021261;28;20033;-80
2021/08/07 12:13:34;;;;;;;;;;;;;;;;;;5028602;28;20392;-80
2021/08/07 12:16:01;;;;;;;5.28;1.08;;;;;;;;;;5030026;28;20011;-80
2021/08/07 12:18:40;;;;;;;3.47;0.98;;;;;;;;;;5022069;28;20033;-80
2021/08/07 12:21:18;;;;;;;3.15;0.90;;;;;;;;;;5024837;28;20036;-80
2021/08/07 12:23:44;;;;;;;5.22;1.10;;;;;;;;;;5022843;28;20036;-80
2021/08/07 12:26:09;;;;;;;2.65;0.90;;;;;;;;;;5023454;28;20034;-80
2021/08/07 12:28:35;;;;;;;4.60;0.90;;;;;;;;;;5024084;28;20120;-80
2021/08/07 12:31:02;;;;;;;3.30;0.90;;;;;;;;;;5030562;28;20091;-80
2021/08/07 12:33:30;;;;;;;5.90;0.93;;;;;;;;;;5029960;28;20040;-80
2021/08/07 12:35:55;;;;;;;4.63;1.10;;;;;;;;;;5028747;28;20033;-80
2021/08/07 12:38:27;;;;;;;3.33;0.90;;;;;;;;;;5013492;28;20037;-80
2021/08/07 12:40:57;;;;;;;3.13;0.90;;;;;;;;;;5027791;28;20141;-80
2021/08/07 12:43:34;;;;;;;2.85;0.95;;;;;;;;;;5023123;28;20041;-80
2021/08/07 12:46:09;;;;;;;3.75;1.05;;;;;;;;;;5020340;28;20175;-83
2021/08/07 12:48:48;;;;;;;5.65;1.00;;;;;;;;;;5028046;28;20099;-80
2021/08/07 12:51:24;;;;;;;2.42;0.90;;;;;;;;;;5024491;28;20497;-80
2021/08/07 12:53:50;;;;;;;3.22;1.00;;;;;;;;;;5036200;28;20073;-80
2021/08/07 12:56:29;;;;;;;7.25;1.00;;;;;;;;;;5024872;28;20120;-81
2021/08/07 12:59:06;;;;;;;4.03;0.90;;;;;;;;;;5030915;28;20111;-81
2021/08/07 13:01:36;;;;;;;3.10;1.10;;;;;;;;;;5025116;28;20116;-80
2021/08/07 13:04:03;;;;;;;8.63;1.10;;;;;;;;;;5019780;28;20484;-81
2021/08/07 13:06:31;;;;;;;5.32;1.65;;;;;;;;;;5021338;28;20056;-81
2021/08/07 13:09:16;;;;;;;3.13;0.90;;;;;;;;;;5026032;28;21730;-80
2021/08/07 13:12:21;;;;;;;3.92;1.00;;;;;;;;;;5024576;28;20033;-81
2021/08/07 13:14:52;;;;;;;3.00;0.70;;;;;;;;;;5047353;28;20029;-81
2021/08/07 13:17:38;;;;;;;2.78;1.00;;;;;;;;;;5031631;28;20032;-80
2021/08/07 13:20:10;;;;;;;4.47;1.00;;;;;;;;;;5038552;28;20022;-80
2021/08/07 13:22:36;;;;;;;3.75;1.10;;;;;;;;;;5024394;28;20117;-81
2021/08/07 13:25:05;;;;;;;4.45;1.10;;;;;;;;;;5035719;28;20026;-81
2021/08/07 13:27:45;;;;;;;4.65;0.93;;;;;;;;;;5026267;28;20117;-80
2021/08/07 13:30:16;;;;;;;2.90;0.82;;;;;;;;;;5025236;28;20029;-80
2021/08/07 13:32:43;;;;;;;4.22;1.00;;;;;;;;;;5033309;28;20038;-80
2021/08/07 13:35:13;;;;;;;6.47;1.15;;;;;;;;;;5041473;28;20040;-81
2021/08/07 13:37:44;;;;;;;3.65;0.90;;;;;;;;;;5033892;28;20028;-80
2021/08/07 13:40:11;;;;;;;3.08;0.77;;;;;;;;;;5048285;28;20088;-80
2021/08/07 13:42:40;;;;;;;2.72;0.80;;;;;;;;;;5015803;28;20796;-81
2021/08/07 13:45:10;;;;;;;4.50;1.00;;;;;;;;;;5025879;28;20568;-81
2021/08/07 13:47:40;;;;;;;2.42;0.90;;;;;;;;;;5026655;28;20084;-81
2021/08/07 13:50:07;;;;;;;11.02;1.10;;;;;;;;;;5029493;28;20029;-80
2021/08/07 13:52:32;;;;;;;4.13;1.20;;;;;;;;;;5031544;28;20049;-80
2021/08/07 13:54:57;;;;;;;2.33;0.70;;;;;;;;;;5029214;28;20037;-80
2021/08/07 13:57:26;;;;;;;3.22;1.10;;;;;;;;;;5025033;28;20036;-81
2021/08/07 13:59:51;;;;;;;3.90;0.93;;;;;;;;;;5021504;28;20590;-81
2021/08/07 14:02:17;;;;;;;4.95;0.82;;;;;;;;;;5027985;28;20133;-80
2021/08/07 14:04:42;;;;;;;4.68;0.90;;;;;;;;;;5022592;28;20036;-81
2021/08/07 14:07:08;;;;;;;2.17;0.70;;;;;;;;;;5035781;28;20415;-81
2021/08/07 14:09:34;;;;;;;5.22;0.93;;;;;;;;;;5030287;28;20038;-81
2021/08/07 14:12:00;;;;;;;3.30;0.88;;;;;;;;;;5033217;28;20030;-80
2021/08/07 14:14:26;;;;;;;6.07;1.08;;;;;;;;;;5027741;28;20030;-81
2021/08/07 14:16:53;;;;;;;2.35;0.80;;;;;;;;;;5030074;28;20393;-80
2021/08/07 14:19:20;;;;;;;3.33;0.80;;;;;;;;;;5012198;28;20144;-80
2021/08/07 14:21:46;;;;;;;3.17;0.60;;;;;;;;;;5027973;28;20528;-81
2021/08/07 14:24:14;;;;;;;2.28;0.65;;;;;;;;;;5017486;28;20056;-82
2021/08/07 14:26:40;;;;;;;4.95;0.75;;;;;;;;;;5035219;28;20040;-81
2021/08/07 14:29:07;;;;;;;5.68;0.85;;;;;;;;;;5042556;28;20033;-81
2021/08/07 14:31:34;;;;;;;1.95;0.70;;;;;;;;;;5030837;28;20022;-81
2021/08/07 14:34:00;;;;;;;4.00;0.95;;;;;;;;;;5014401;28;20038;-80
2021/08/07 14:36:25;;;;;;;2.55;0.75;;;;;;;;;;5035128;28;20029;-81
2021/08/07 14:38:51;;;;;;;3.13;0.85;;;;;;;;;;5031087;28;20481;-80
2021/08/07 14:41:16;;;;;;;4.38;0.85;;;;;;;;;;5036964;28;20037;-81
2021/08/07 14:43:44;;;;;;;2.42;0.90;;;;;;;;;;5022611;28;20057;-81
2021/08/07 14:46:09;;;;;;;3.28;0.80;;;;;;;;;;5028494;28;20452;-81
2021/08/07 14:48:35;;;;;;;3.03;1.00;;;;;;;;;;5030320;28;20048;-80
2021/08/07 14:51:02;;;;;;;1.88;0.80;;;;;;;;;;5040342;28;20086;-80
2021/08/07 14:53:27;;;;;;;2.95;0.90;;;;;;;;;;5036827;28;20596;-81